x

West Oregon - 275nm West Of Coos Bay, Or (46002) Wave Buoy

1:50am - Thu 7th May 2015 All times are UTC.

  • Sig Wave height 5.2ft
  • Peak Period 16s
  • Average Period 6s
  • Wind
    16mph, 20mph gusts
  • Sea Temp 55°f
  • Air Temp 54°f
  • Sea Pressure 1025.6mb

More Historic Weather Station data

Upgrade to MSW Pro to gain access to the past 30 days of data for over 8000 Wavebouys and Weather Stations around the globe.

Join Pro

Comparision Forecast

View Surf forecast
   
Thu 05/07 1:50am 5ft 16s 6s 16 20 mph 1025.6mb 55f 54f
12:50am 5.5ft 16s 6s 16 20 mph 1025.6mb 55f 54f
Wed 05/06 11:50pm 5ft 16s 6s 16 20 mph 1025.7mb 55f 54f
10:50pm 5.5ft 16s 6s 13 18 mph 1025.9mb 55f 54f
9:50pm 5.5ft 17s 6s 13 18 mph 1026mb 55f 54f
8:50pm 5.5ft 16s 6s 13 18 mph 1026.1mb 55f 54f
7:50pm 6ft 16s 6s 16 20 mph 1026.3mb 55f 54f
6:50pm 6ft 17s 6s 16 20 mph 1026.2mb 55f 54f
5:50pm 6ft 17s 6s 18 22 mph 1026.1mb 55f 54f
4:50pm 6.5ft 17s 6s 18 20 mph 1026mb 55f 53f
3:50pm 6.5ft 16s 6s 16 20 mph 1025.8mb 55f 53f
2:50pm 6.5ft 9s 6s 18 20 mph 1025.5mb 55f 53f
1:50pm 7ft 17s 6s 18 20 mph 1025mb 55f 53f
12:50pm 6.5ft 17s 6s 18 22 mph 1024.7mb 55f 53f
11:50am 6.5ft 8s 6s 18 22 mph 1024.7mb 55f 53f
10:50am 6.5ft 17s 6s 18 20 mph 1024.8mb 55f 53f
9:50am 6.5ft 16s 6s 13 20 mph 1025.1mb 55f 53f
8:50am 6.5ft 8s 6s 16 22 mph 1025.6mb 55f 51f
7:50am 7ft 9s 6s 13 18 mph 1025.4mb 55f 53f
6:50am 7ft 8s 6s 18 22 mph 1025.2mb 55f 54f
5:50am 7ft 9s 7s 11 16 mph 1025.5mb 55f 52f
4:50am 7ft 17s 7s 16 20 mph 1025.1mb 55f 53f
3:50am 7.5ft 10s 7s 18 22 mph 1024.6mb 55f 53f
2:50am 8ft 17s 7s 16 20 mph 1024.3mb 55f 53f
1:50am 7.5ft 19s 7s 18 20 mph 1024.1mb 55f 53f
12:50am 7.5ft 10s 7s 20 22 mph 1023.8mb 55f 54f
Tue 05/05 11:50pm 8ft 11s 7s 20 25 mph 1023.9mb 55f 53f
10:50pm 8ft 11s 7s 13 20 mph 1024.2mb 55f 53f
9:50pm 9ft 10s 7s 13 18 mph 1024.4mb 55f 53f
8:50pm 9ft 11s 8s 16 20 mph 1024.1mb 55f 53f
7:50pm 8ft 11s 7s 16 18 mph 1024.3mb 55f 52f
6:50pm 9ft 11s 8s 11 20 mph 1024.3mb 55f 53f
5:50pm 9ft 12s 8s 18 22 mph 1023.9mb 55f 53f
4:50pm 8ft 10s 7s 9 13 mph 1023.9mb 55f 53f
3:50pm 9.5ft 11s 8s 16 20 mph 1023.6mb 55f 53f
2:50pm 10ft 12s 8s 9 11 mph 1023.2mb 55f 52f
1:50pm 10ft 12s 8s 13 20 mph 1022.4mb 55f 53f
12:50pm 10ft 11s 8s 9 13 mph 1022.3mb 55f 52f
11:50am 11ft 12s 8s 13 16 mph 1021.9mb 55f 53f
10:50am 10ft 13s 8s 13 18 mph 1021.7mb 55f 53f
9:50am 11ft 12s 8s 11 16 mph 1021.6mb 55f 53f
8:50am 11ft 13s 8s 13 16 mph 1021.7mb 55f 53f
7:50am 11ft 10s 8s 16 20 mph 1021.4mb 55f 54f
6:50am 13ft 12s 9s 18 25 mph 1021.4mb 55f 54f
5:50am 12ft 13s 9s 9 13 mph 1021.5mb 55f 53f
4:50am 12ft 13s 9s 11 16 mph 1021.2mb 55f 53f
3:50am 11ft 14s 9s 11 13 mph 1020.7mb 55f 54f
2:50am 11.5ft 14s 8s 13 18 mph 1020.6mb 55f 54f
1:50am 11ft 14s 8s 18 22 mph 1020.2mb 55f 55f
12:50am 11ft 14s 8s 18 22 mph 1020.1mb 55f 55f
Mon 05/04 11:50pm  -   -   -  18 22 mph 1020mb 55f 55f
10:50pm 11ft 13s 8s 18 22 mph 1020mb 55f 55f
9:50pm 11.5ft 13s 8s 18 22 mph 1019.9mb 55f 55f
8:50pm 10ft 12s 8s 18 22 mph 1019.5mb 55f 55f
7:50pm 11ft 13s 8s 18 22 mph 1019.2mb 55f 55f
6:50pm 11ft 14s 9s 16 20 mph 1018.9mb 55f 55f
5:50pm 9.5ft 14s 8s 13 18 mph 1018.4mb 55f 55f
4:50pm 9ft 14s 8s 18 20 mph 1017.8mb 55f 55f
3:50pm 9ft 15s 8s 16 20 mph 1017.7mb 55f 55f
2:50pm 7ft 16s 7s 16 20 mph 1017.4mb 55f 55f
1:50pm 6.5ft 16s 7s 20 25 mph 1016.7mb 55f 55f
12:50pm 5.5ft 16s 5s 16 20 mph 1016.5mb 55f 53f
11:50am 5ft 17s 5s 16 22 mph 1016.1mb 55f 55f
10:50am 4.5ft 21s 6s 16 20 mph 1016.5mb 55f 55f
9:50am 5ft 21s 7s 13 16 mph 1016.7mb 55f 54f
8:50am 4.5ft 17s 6s 16 18 mph 1017.2mb 55f 54f
7:50am 5ft 24s 7s 13 18 mph 1017.4mb 55f 54f
6:50am 4.5ft 11s 7s 11 13 mph 1017.7mb 55f 54f
5:50am 5ft 24s 7s 11 13 mph 1018mb 55f 54f
4:50am 5ft 8s 7s 11 16 mph 1018.1mb 55f 54f
3:50am 5ft 10s 7s 9 11 mph 1018.1mb 55f 53f
2:50am 5ft 9s 7s 2 7 mph 1018.2mb 55f 53f
1:50am 5ft 11s  -  2 4 mph 1018.6mb 55f 53f
12:50am 6ft 10s 7s 7 9 mph 1019mb 55f 53f
Sun 05/03 11:50pm 5.5ft 9s 7s 9 11 mph 1019.4mb 55f 53f
10:50pm 6ft 9s 7s 9 11 mph 1019.9mb 55f 52f
9:50pm 6ft 10s 7s 9 13 mph 1020.1mb 55f 52f
8:50pm 6ft 10s 7s 9 11 mph 1020.3mb 55f 52f
7:50pm 5.5ft 10s 7s 9 13 mph 1020.5mb 55f 52f
6:50pm 5.5ft 8s 7s 11 13 mph 1020.6mb 55f 52f
5:50pm 6.5ft 11s 7s 9 13 mph 1020.6mb 55f 52f
4:50pm 6ft 11s 7s 11 13 mph 1020.6mb 55f 51f
3:50pm 6ft 11s 7s 9 13 mph 1020.6mb 55f 51f
2:50pm 6.5ft 11s 7s 11 13 mph 1020.4mb 55f 52f
1:50pm 6.5ft 11s 6s 11 16 mph 1020.2mb 55f 52f
12:50pm 6ft 11s 6s 13 20 mph 1020.1mb 55f 52f
11:50am 7ft 12s 7s 13 16 mph 1020.3mb 55f 52f
10:50am 7ft 10s 6s 11 18 mph 1020.5mb 55f 52f
9:50am 7ft 11s 6s 13 18 mph 1020.9mb 55f 52f
8:50am 7.5ft 10s 7s 11 16 mph 1021.3mb 55f 52f
7:50am 7ft 11s 7s 13 20 mph 1021.5mb 55f 52f
6:50am 8ft 11s 7s 13 20 mph 1021.9mb 55f 52f
5:50am 7ft 11s 7s 13 18 mph 1022.2mb 55f 52f
4:50am 7ft 11s 7s 16 20 mph 1021.9mb 55f 53f
3:50am 7ft 11s 6s 16 20 mph 1021.6mb 55f 53f